»·PEaware :: N16894 KSNA-KBUR

N16894 :: KSNA-KBUR

FLIGHT INFORMATION

Flight Status: Arrived
Operator: Privately registered:
United States
More flights under this callsign
Pilot: Anonymous 17878 (17878)
Aircraft: CESSNA 172 SKYHAWK
(C172)
More flights by this aircraft type
Origin: KSNA John Wayne-Orange Co
United States
Destination: KBUR Bob Hope-Burbank
United States
More flights between these airports :: More routes between these airports
Route: SLI V23 POPPR SMO125R SMO SMO311R SILEX
File this flight plan on PilotEdge
Remarks: TEC route CSTP1
Altitude:
(Current/Filed)
4,000ft
Speed:
(Current/Filed)
110kts
Departed: 01-Dec-19 04:49 PM
Arrived: 01-Dec-19 05:29 PM
Distance/Time
Traveled:
40nm/0:40
Distance/Time
To Go:
Arrived

Flight Plot

Page will automatically refresh every two minutes.


Map Options




Map Legend


Flown Route
Filed Route
Departure Airport
Arrival Airport
Navaid (VOR, NDB)
Fix

Horizontal Profiles

Position Reports

Time Latitude Longitude Heading Altitude Ground
Speed
01-Dec-19 16:26 33.676031 -117.871361 219 60ft 0kts
01-Dec-19 16:27 33.676031 -117.871361 219 60ft 0kts
01-Dec-19 16:28 33.676031 -117.871361 219 60ft 0kts
01-Dec-19 16:29 33.676031 -117.871361 219 60ft 0kts
01-Dec-19 16:30 33.676031 -117.871361 219 60ft 0kts
01-Dec-19 16:31 33.676031 -117.871361 219 60ft 0kts
01-Dec-19 16:32 33.676031 -117.871361 219 60ft 0kts
01-Dec-19 16:33 33.676031 -117.871361 219 60ft 0kts
01-Dec-19 16:34 33.676031 -117.871361 219 60ft 0kts
01-Dec-19 16:35 33.676031 -117.871361 219 60ft 0kts
01-Dec-19 16:36 33.676031 -117.871361 219 60ft 0kts
01-Dec-19 16:37 33.676031 -117.871361 219 60ft 0kts
01-Dec-19 16:38 33.676031 -117.871361 219 60ft 0kts
01-Dec-19 16:39 33.675816 -117.870867 91 60ft 2kts
01-Dec-19 16:40 33.677680 -117.869064 23 60ft 15kts
01-Dec-19 16:41 33.681166 -117.867025 63 60ft 0kts
01-Dec-19 16:42 33.681251 -117.866491 119 60ft 0kts
01-Dec-19 16:43 33.681251 -117.866491 119 60ft 0kts
01-Dec-19 16:44 33.681251 -117.866491 119 60ft 0kts
01-Dec-19 16:45 33.681251 -117.866491 119 60ft 0kts
01-Dec-19 16:46 33.681251 -117.866491 119 60ft 0kts
01-Dec-19 16:47 33.680616 -117.865699 207 60ft 0kts
01-Dec-19 16:48 33.668530 -117.872976 212 514ft 72kts
01-Dec-19 16:49 33.657300 -117.892646 240 1405ft 70kts
01-Dec-19 16:50 33.646843 -117.913392 244 2198ft 76kts
01-Dec-19 16:51 33.637093 -117.936224 278 2902ft 80kts
01-Dec-19 16:52 33.641792 -117.960222 280 3696ft 71kts
01-Dec-19 16:53 33.645740 -117.987225 283 4046ft 99kts
01-Dec-19 16:54 33.653156 -118.021229 284 4060ft 106kts
01-Dec-19 16:55 33.658996 -118.057346 284 4032ft 107kts
01-Dec-19 16:56 33.666723 -118.092482 290 3985ft 106kts
01-Dec-19 16:57 33.681789 -118.121900 316 4037ft 103kts
01-Dec-19 16:58 33.703876 -118.144901 316 4015ft 108kts
01-Dec-19 16:59 33.726783 -118.169117 316 4008ft 109kts
01-Dec-19 17:00 33.750067 -118.193090 316 4008ft 110kts
01-Dec-19 17:01 33.773736 -118.217202 315 4005ft 111kts
01-Dec-19 17:02 33.797432 -118.241170 316 4006ft 110kts
01-Dec-19 17:03 33.821255 -118.265189 316 3990ft 110kts
01-Dec-19 17:04 33.844858 -118.289006 317 3992ft 110kts
01-Dec-19 17:05 33.868411 -118.312748 318 3995ft 109kts
01-Dec-19 17:06 33.891819 -118.336313 318 3996ft 109kts
01-Dec-19 17:07 33.915221 -118.359897 319 3998ft 109kts
01-Dec-19 17:08 33.938738 -118.383598 318 3997ft 109kts
01-Dec-19 17:09 33.962145 -118.407247 317 3997ft 110kts
01-Dec-19 17:10 33.985772 -118.431132 316 3996ft 110kts
01-Dec-19 17:11 34.009152 -118.455369 312 3996ft 110kts
01-Dec-19 17:12 34.030892 -118.480213 312 3996ft 104kts
01-Dec-19 17:13 34.052093 -118.503964 312 3997ft 103kts
01-Dec-19 17:14 34.073279 -118.527509 312 3997ft 103kts
01-Dec-19 17:15 34.094674 -118.551236 312 4003ft 104kts
01-Dec-19 17:16 34.116042 -118.575114 312 4005ft 104kts
01-Dec-19 17:17 34.137337 -118.599001 312 4004ft 103kts
01-Dec-19 17:18 34.158332 -118.622975 312 4003ft 101kts
01-Dec-19 17:19 34.182215 -118.626977 56 3895ft 117kts
01-Dec-19 17:20 34.193538 -118.593903 62 3468ft 99kts
01-Dec-19 17:21 34.199251 -118.559560 84 3009ft 107kts
01-Dec-19 17:22 34.199780 -118.521872 89 3023ft 109kts
01-Dec-19 17:23 34.199263 -118.488222 88 2781ft 104kts
01-Dec-19 17:24 34.198805 -118.453922 89 2220ft 99kts
01-Dec-19 17:25 34.198460 -118.420758 89 1683ft 98kts
01-Dec-19 17:26 34.198099 -118.387814 91 1142ft 97kts
01-Dec-19 17:27 34.197790 -118.361538 90 788ft 58kts
01-Dec-19 17:28 34.197857 -118.355220 36 780ft 7kts
01-Dec-19 17:29 34.198777 -118.355380 345 780ft 0kts
01-Dec-19 17:30 34.198777 -118.355380 345 780ft 0kts

Navigation Log

Ident Type
Flight plan parsing failed, navigation log unavailable